Bertem, Belgium
Current Conditions -  °F | °C
As of 4:50 PM on Monday 24 Nov 2014 (Local Time) from EBBR Reporting Station
Few Clouds Few Clouds  
Wind Chill: 46°   Ceiling: Unl
Heat Index: 46°   Visibility: 6mi
Dew Point: 37°   Wind: 2mph
Humidity: 71%   Direction: 60°ENE
Pressure: 30.3"   Gusts: NA
Location:  50.86°N, 4.63°E
Report Text: EBBR 241550Z 06002KT 9999 FEW030 08/03 Q1026 NOSIG
Loading
Personal Weather Stations






























Interactive Weather Map New forecast layout! Learn more

10-Day Weather Forecast

Advertisements
Track Severe Weather on mobile